Terminal Aerodrome Forecast
Issued by NWS

Home | Current Version | Previous Version | Text Only | Print | Product List | Glossary On
Versions: 1 2 3 4 5 6 7 8 9 10 11 12 13 14 15 16 17 18 19
000
FTUS41 KCAR 300700 AAA
TAFFVE
TAF AMD
KFVE 300743Z 3008/0106 11006KT 3SM -DZ OVC003
     FM301000 13006KT P6SM -DZ OVC007
     FM301600 16005KT P6SM -DZ SCT007 OVC015
     FM302000 VRB03KT P6SM SCT015 OVC025=

USA.gov is the U.S. government's official web portal to all federal, state and local government web resources and services.